KEEN/EEN METAR and TAF weather

Enter ICAO airport designator
Station Type Date Time Source
KEEN METAR 2019/10/21 21:56 UTC NOAA

KEEN 212156Z AUTO 00000KT 10SM CLR 13/11 A3013 RMK AO2 SLP206 T01330106 $


Station Type Date Time Source
KEEN Decoded METAR 2019/10/21 21:56 UTC NOAA

Keene, Dillant-Hopkins Airport, NH, United States (KEEN) 42-54N 072-16W
Oct 21, 2019 - 05:56 PM EDT / 2019.10.21 2156 UTC
Wind: Calm:0
Visibility: 10 mile(s):0
Sky conditions: clear
Temperature: 55.9 F (13.3 C)
Dew Point: 51.1 F (10.6 C)
Relative Humidity: 83%
Pressure (altimeter): 30.13 in. Hg (1020 hPa)
ob: KEEN 212156Z AUTO 00000KT 10SM CLR 13/11 A3013 RMK AO2 SLP206 T01330106
cycle: 22

Station Type Date Time Source
KEEN TAF UTC NOAA

Error!

Example: see airport list